sensor_id;sensor_type;location;lat;lon;timestamp;P1;durP1;ratioP1;P2;durP2;ratioP2
52126;SDS011;38120;53.176;6.614;2022-10-23T00:01:23;13.73;;;7.75;;
52126;SDS011;38120;53.176;6.614;2022-10-23T00:03:57;15.82;;;7.85;;
52126;SDS011;38120;53.176;6.614;2022-10-23T00:06:25;16.23;;;7.78;;
52126;SDS011;38120;53.176;6.614;2022-10-23T00:08:52;15.63;;;7.78;;
52126;SDS011;38120;53.176;6.614;2022-10-23T00:11:21;14.50;;;7.53;;
52126;SDS011;38120;53.176;6.614;2022-10-23T00:13:49;15.48;;;7.40;;
52126;SDS011;38120;53.176;6.614;2022-10-23T00:16:15;17.10;;;7.93;;
52126;SDS011;38120;53.176;6.614;2022-10-23T00:18:41;13.07;;;8.13;;
52126;SDS011;38120;53.176;6.614;2022-10-23T00:21:08;12.43;;;7.78;;
52126;SDS011;38120;53.176;6.614;2022-10-23T00:23:35;13.40;;;7.88;;
52126;SDS011;38120;53.176;6.614;2022-10-23T00:26:02;14.93;;;8.55;;
52126;SDS011;38120;53.176;6.614;2022-10-23T00:28:28;15.45;;;8.65;;
52126;SDS011;38120;53.176;6.614;2022-10-23T00:30:54;13.70;;;7.07;;
52126;SDS011;38120;53.176;6.614;2022-10-23T00:33:20;14.33;;;8.80;;
52126;SDS011;38120;53.176;6.614;2022-10-23T00:35:46;13.37;;;8.60;;
52126;SDS011;38120;53.176;6.614;2022-10-23T00:38:11;18.30;;;8.53;;
52126;SDS011;38120;53.176;6.614;2022-10-23T00:40:37;16.92;;;9.65;;
52126;SDS011;38120;53.176;6.614;2022-10-23T00:43:03;22.15;;;9.85;;
52126;SDS011;38120;53.176;6.614;2022-10-23T00:45:30;25.52;;;11.07;;
52126;SDS011;38120;53.176;6.614;2022-10-23T00:48:00;19.58;;;8.82;;
52126;SDS011;38120;53.176;6.614;2022-10-23T00:50:31;17.10;;;10.32;;
52126;SDS011;38120;53.176;6.614;2022-10-23T00:52:58;18.20;;;10.82;;
52126;SDS011;38120;53.176;6.614;2022-10-23T00:55:26;16.67;;;9.43;;
52126;SDS011;38120;53.176;6.614;2022-10-23T00:57:53;22.90;;;11.35;;
52126;SDS011;38120;53.176;6.614;2022-10-23T01:00:23;23.95;;;10.32;;
52126;SDS011;38120;53.176;6.614;2022-10-23T01:02:51;16.83;;;10.15;;
52126;SDS011;38120;53.176;6.614;2022-10-23T01:05:19;16.30;;;9.38;;
52126;SDS011;38120;53.176;6.614;2022-10-23T01:07:55;15.48;;;9.27;;
52126;SDS011;38120;53.176;6.614;2022-10-23T01:10:36;17.33;;;9.63;;
52126;SDS011;38120;53.176;6.614;2022-10-23T01:18:25;16.40;;;9.18;;
52126;SDS011;38120;53.176;6.614;2022-10-23T01:20:59;15.75;;;9.55;;
52126;SDS011;38120;53.176;6.614;2022-10-23T01:26:18;15.05;;;9.30;;
52126;SDS011;38120;53.176;6.614;2022-10-23T01:29:13;18.80;;;10.05;;
52126;SDS011;38120;53.176;6.614;2022-10-23T01:31:47;15.38;;;10.45;;
52126;SDS011;38120;53.176;6.614;2022-10-23T01:37:08;21.52;;;11.52;;
52126;SDS011;38120;53.176;6.614;2022-10-23T01:39:38;16.00;;;11.15;;
52126;SDS011;38120;53.176;6.614;2022-10-23T01:42:09;16.85;;;9.95;;
52126;SDS011;38120;53.176;6.614;2022-10-23T01:49:44;27.00;;;10.05;;
52126;SDS011;38120;53.176;6.614;2022-10-23T01:52:13;17.52;;;9.38;;
52126;SDS011;38120;53.176;6.614;2022-10-23T01:54:41;16.83;;;10.50;;
52126;SDS011;38120;53.176;6.614;2022-10-23T01:57:10;14.80;;;9.40;;
52126;SDS011;38120;53.176;6.614;2022-10-23T01:59:43;18.02;;;9.75;;
52126;SDS011;38120;53.176;6.614;2022-10-23T02:02:16;15.02;;;8.55;;
52126;SDS011;38120;53.176;6.614;2022-10-23T02:07:47;16.88;;;8.90;;
52126;SDS011;38120;53.176;6.614;2022-10-23T02:10:13;14.52;;;8.35;;
52126;SDS011;38120;53.176;6.614;2022-10-23T02:15:13;13.65;;;8.77;;
52126;SDS011;38120;53.176;6.614;2022-10-23T02:22:57;12.68;;;9.25;;
52126;SDS011;38120;53.176;6.614;2022-10-23T02:25:29;14.50;;;9.25;;
52126;SDS011;38120;53.176;6.614;2022-10-23T02:28:09;18.92;;;9.43;;
52126;SDS011;38120;53.176;6.614;2022-10-23T02:30:38;12.82;;;8.95;;
52126;SDS011;38120;53.176;6.614;2022-10-23T02:33:08;12.13;;;8.82;;
52126;SDS011;38120;53.176;6.614;2022-10-23T02:35:34;21.85;;;10.15;;
52126;SDS011;38120;53.176;6.614;2022-10-23T02:38:00;17.42;;;9.60;;
52126;SDS011;38120;53.176;6.614;2022-10-23T02:40:29;15.07;;;9.45;;
52126;SDS011;38120;53.176;6.614;2022-10-23T02:43:07;29.77;;;10.43;;
52126;SDS011;38120;53.176;6.614;2022-10-23T02:45:48;24.38;;;9.98;;
52126;SDS011;38120;53.176;6.614;2022-10-23T02:48:22;39.50;;;11.77;;
52126;SDS011;38120;53.176;6.614;2022-10-23T02:51:08;26.00;;;10.32;;
52126;SDS011;38120;53.176;6.614;2022-10-23T02:56:30;47.38;;;13.00;;
52126;SDS011;38120;53.176;6.614;2022-10-23T02:59:22;122.90;;;21.35;;
52126;SDS011;38120;53.176;6.614;2022-10-23T03:02:20;172.05;;;21.58;;
52126;SDS011;38120;53.176;6.614;2022-10-23T03:04:53;61.50;;;15.55;;
52126;SDS011;38120;53.176;6.614;2022-10-23T03:07:20;137.65;;;24.27;;
52126;SDS011;38120;53.176;6.614;2022-10-23T03:09:46;33.05;;;13.63;;
52126;SDS011;38120;53.176;6.614;2022-10-23T03:12:12;76.32;;;18.33;;
52126;SDS011;38120;53.176;6.614;2022-10-23T03:14:37;22.67;;;11.68;;
52126;SDS011;38120;53.176;6.614;2022-10-23T03:17:03;36.17;;;15.83;;
52126;SDS011;38120;53.176;6.614;2022-10-23T03:19:31;17.33;;;11.60;;
52126;SDS011;38120;53.176;6.614;2022-10-23T03:21:56;15.67;;;11.60;;
52126;SDS011;38120;53.176;6.614;2022-10-23T03:24:22;33.33;;;13.00;;
52126;SDS011;38120;53.176;6.614;2022-10-23T03:26:48;18.27;;;11.43;;
52126;SDS011;38120;53.176;6.614;2022-10-23T03:29:13;24.87;;;14.97;;
52126;SDS011;38120;53.176;6.614;2022-10-23T03:31:39;21.10;;;12.70;;
52126;SDS011;38120;53.176;6.614;2022-10-23T03:34:05;20.20;;;13.50;;
52126;SDS011;38120;53.176;6.614;2022-10-23T03:36:35;39.00;;;15.27;;
52126;SDS011;38120;53.176;6.614;2022-10-23T03:39:01;33.85;;;15.73;;
52126;SDS011;38120;53.176;6.614;2022-10-23T03:41:28;19.52;;;12.95;;
52126;SDS011;38120;53.176;6.614;2022-10-23T03:43:54;33.83;;;16.50;;
52126;SDS011;38120;53.176;6.614;2022-10-23T03:46:19;18.20;;;13.80;;
52126;SDS011;38120;53.176;6.614;2022-10-23T03:48:45;19.03;;;12.57;;
52126;SDS011;38120;53.176;6.614;2022-10-23T03:51:11;17.27;;;12.50;;
52126;SDS011;38120;53.176;6.614;2022-10-23T03:53:37;21.92;;;15.73;;
52126;SDS011;38120;53.176;6.614;2022-10-23T03:56:02;17.70;;;13.70;;
52126;SDS011;38120;53.176;6.614;2022-10-23T03:58:28;22.75;;;15.98;;
52126;SDS011;38120;53.176;6.614;2022-10-23T04:00:55;20.65;;;14.30;;
52126;SDS011;38120;53.176;6.614;2022-10-23T04:03:21;18.70;;;13.65;;
52126;SDS011;38120;53.176;6.614;2022-10-23T04:05:47;19.00;;;14.82;;
52126;SDS011;38120;53.176;6.614;2022-10-23T04:08:14;18.67;;;13.47;;
52126;SDS011;38120;53.176;6.614;2022-10-23T04:10:39;15.25;;;12.13;;
52126;SDS011;38120;53.176;6.614;2022-10-23T04:13:05;16.80;;;13.10;;
52126;SDS011;38120;53.176;6.614;2022-10-23T04:15:31;19.73;;;15.33;;
52126;SDS011;38120;53.176;6.614;2022-10-23T04:17:56;20.90;;;15.00;;
52126;SDS011;38120;53.176;6.614;2022-10-23T04:20:22;19.70;;;15.13;;
52126;SDS011;38120;53.176;6.614;2022-10-23T04:22:48;17.27;;;13.20;;
52126;SDS011;38120;53.176;6.614;2022-10-23T04:25:13;19.17;;;15.17;;
52126;SDS011;38120;53.176;6.614;2022-10-23T04:27:40;22.50;;;14.65;;
52126;SDS011;38120;53.176;6.614;2022-10-23T04:30:06;21.27;;;15.20;;
52126;SDS011;38120;53.176;6.614;2022-10-23T04:32:33;22.73;;;17.40;;
52126;SDS011;38120;53.176;6.614;2022-10-23T04:34:59;20.92;;;14.95;;
52126;SDS011;38120;53.176;6.614;2022-10-23T04:37:24;24.17;;;18.13;;
52126;SDS011;38120;53.176;6.614;2022-10-23T04:39:50;24.23;;;16.23;;
52126;SDS011;38120;53.176;6.614;2022-10-23T04:42:16;21.27;;;15.50;;
52126;SDS011;38120;53.176;6.614;2022-10-23T04:44:41;19.27;;;13.33;;
52126;SDS011;38120;53.176;6.614;2022-10-23T04:47:07;20.03;;;14.90;;
52126;SDS011;38120;53.176;6.614;2022-10-23T04:49:33;24.23;;;18.00;;
52126;SDS011;38120;53.176;6.614;2022-10-23T04:51:58;20.07;;;14.03;;
52126;SDS011;38120;53.176;6.614;2022-10-23T04:54:24;23.63;;;18.30;;
52126;SDS011;38120;53.176;6.614;2022-10-23T04:56:49;32.57;;;19.63;;
52126;SDS011;38120;53.176;6.614;2022-10-23T04:59:15;24.73;;;18.40;;
52126;SDS011;38120;53.176;6.614;2022-10-23T05:01:41;25.60;;;19.27;;
52126;SDS011;38120;53.176;6.614;2022-10-23T05:04:06;27.93;;;19.17;;
52126;SDS011;38120;53.176;6.614;2022-10-23T05:06:32;24.80;;;16.97;;
52126;SDS011;38120;53.176;6.614;2022-10-23T05:08:58;28.30;;;19.58;;
52126;SDS011;38120;53.176;6.614;2022-10-23T05:11:24;28.80;;;18.25;;
52126;SDS011;38120;53.176;6.614;2022-10-23T05:13:49;22.30;;;17.13;;
52126;SDS011;38120;53.176;6.614;2022-10-23T05:16:25;24.93;;;17.87;;
52126;SDS011;38120;53.176;6.614;2022-10-23T05:19:00;25.00;;;17.30;;
52126;SDS011;38120;53.176;6.614;2022-10-23T05:23:53;26.25;;;19.65;;
52126;SDS011;38120;53.176;6.614;2022-10-23T05:26:19;24.17;;;17.90;;
52126;SDS011;38120;53.176;6.614;2022-10-23T05:28:46;25.27;;;20.08;;
52126;SDS011;38120;53.176;6.614;2022-10-23T05:31:13;28.40;;;20.48;;
52126;SDS011;38120;53.176;6.614;2022-10-23T05:33:39;23.55;;;18.30;;
52126;SDS011;38120;53.176;6.614;2022-10-23T05:36:06;27.60;;;18.93;;
52126;SDS011;38120;53.176;6.614;2022-10-23T05:38:32;20.65;;;15.40;;
52126;SDS011;38120;53.176;6.614;2022-10-23T05:40:59;22.95;;;17.70;;
52126;SDS011;38120;53.176;6.614;2022-10-23T05:43:25;22.67;;;16.88;;
52126;SDS011;38120;53.176;6.614;2022-10-23T05:45:52;24.63;;;18.63;;
52126;SDS011;38120;53.176;6.614;2022-10-23T05:48:18;23.85;;;18.70;;
52126;SDS011;38120;53.176;6.614;2022-10-23T05:50:44;20.17;;;16.67;;
52126;SDS011;38120;53.176;6.614;2022-10-23T05:53:10;26.60;;;19.20;;
52126;SDS011;38120;53.176;6.614;2022-10-23T05:55:35;31.38;;;20.25;;
52126;SDS011;38120;53.176;6.614;2022-10-23T05:58:02;27.50;;;19.92;;
52126;SDS011;38120;53.176;6.614;2022-10-23T06:00:29;27.27;;;18.75;;
52126;SDS011;38120;53.176;6.614;2022-10-23T06:02:57;26.63;;;18.45;;
52126;SDS011;38120;53.176;6.614;2022-10-23T06:05:24;28.65;;;20.05;;
52126;SDS011;38120;53.176;6.614;2022-10-23T06:07:50;23.40;;;16.48;;
52126;SDS011;38120;53.176;6.614;2022-10-23T06:10:15;27.40;;;19.73;;
52126;SDS011;38120;53.176;6.614;2022-10-23T06:12:41;25.15;;;20.42;;
52126;SDS011;38120;53.176;6.614;2022-10-23T06:15:07;23.27;;;16.50;;
52126;SDS011;38120;53.176;6.614;2022-10-23T06:17:33;31.50;;;18.08;;
52126;SDS011;38120;53.176;6.614;2022-10-23T06:19:58;31.17;;;18.77;;
52126;SDS011;38120;53.176;6.614;2022-10-23T06:22:29;22.67;;;16.55;;
52126;SDS011;38120;53.176;6.614;2022-10-23T06:24:55;31.30;;;20.10;;
52126;SDS011;38120;53.176;6.614;2022-10-23T06:27:21;28.13;;;19.53;;
52126;SDS011;38120;53.176;6.614;2022-10-23T06:29:46;25.88;;;19.40;;
52126;SDS011;38120;53.176;6.614;2022-10-23T06:32:12;26.43;;;18.97;;
52126;SDS011;38120;53.176;6.614;2022-10-23T06:34:38;23.98;;;17.77;;
52126;SDS011;38120;53.176;6.614;2022-10-23T06:37:04;29.30;;;20.20;;
52126;SDS011;38120;53.176;6.614;2022-10-23T06:39:30;30.85;;;19.60;;
52126;SDS011;38120;53.176;6.614;2022-10-23T06:41:56;30.52;;;20.63;;
52126;SDS011;38120;53.176;6.614;2022-10-23T06:44:22;26.73;;;17.77;;
52126;SDS011;38120;53.176;6.614;2022-10-23T06:46:47;31.57;;;18.00;;
52126;SDS011;38120;53.176;6.614;2022-10-23T06:49:14;28.67;;;19.48;;
52126;SDS011;38120;53.176;6.614;2022-10-23T06:54:06;30.33;;;19.38;;
52126;SDS011;38120;53.176;6.614;2022-10-23T06:56:35;28.98;;;19.70;;
52126;SDS011;38120;53.176;6.614;2022-10-23T06:59:01;27.33;;;18.08;;
52126;SDS011;38120;53.176;6.614;2022-10-23T07:01:27;28.92;;;20.10;;
52126;SDS011;38120;53.176;6.614;2022-10-23T07:03:53;27.67;;;20.67;;
52126;SDS011;38120;53.176;6.614;2022-10-23T07:06:19;28.00;;;17.80;;
52126;SDS011;38120;53.176;6.614;2022-10-23T07:08:45;25.70;;;18.50;;
52126;SDS011;38120;53.176;6.614;2022-10-23T07:11:10;28.10;;;19.27;;
52126;SDS011;38120;53.176;6.614;2022-10-23T07:13:36;28.42;;;20.70;;
52126;SDS011;38120;53.176;6.614;2022-10-23T07:16:13;28.42;;;19.38;;
52126;SDS011;38120;53.176;6.614;2022-10-23T07:18:41;28.63;;;19.73;;
52126;SDS011;38120;53.176;6.614;2022-10-23T07:21:07;29.00;;;16.83;;
52126;SDS011;38120;53.176;6.614;2022-10-23T07:23:34;28.88;;;18.42;;
52126;SDS011;38120;53.176;6.614;2022-10-23T07:26:07;25.90;;;16.83;;
52126;SDS011;38120;53.176;6.614;2022-10-23T07:28:34;23.92;;;17.75;;
52126;SDS011;38120;53.176;6.614;2022-10-23T07:31:00;25.25;;;17.73;;
52126;SDS011;38120;53.176;6.614;2022-10-23T07:33:26;28.30;;;18.53;;
52126;SDS011;38120;53.176;6.614;2022-10-23T07:35:51;28.17;;;18.17;;
52126;SDS011;38120;53.176;6.614;2022-10-23T07:38:17;24.20;;;19.47;;
52126;SDS011;38120;53.176;6.614;2022-10-23T07:40:43;26.77;;;19.00;;
52126;SDS011;38120;53.176;6.614;2022-10-23T07:43:09;26.63;;;18.83;;
52126;SDS011;38120;53.176;6.614;2022-10-23T07:45:35;25.50;;;19.10;;
52126;SDS011;38120;53.176;6.614;2022-10-23T07:48:01;27.53;;;19.20;;
52126;SDS011;38120;53.176;6.614;2022-10-23T07:50:27;30.55;;;17.77;;
52126;SDS011;38120;53.176;6.614;2022-10-23T07:52:53;27.23;;;18.43;;
52126;SDS011;38120;53.176;6.614;2022-10-23T07:55:18;26.47;;;18.30;;
52126;SDS011;38120;53.176;6.614;2022-10-23T07:57:44;27.50;;;17.63;;
52126;SDS011;38120;53.176;6.614;2022-10-23T08:00:10;22.97;;;17.00;;
52126;SDS011;38120;53.176;6.614;2022-10-23T08:02:36;27.02;;;18.25;;
52126;SDS011;38120;53.176;6.614;2022-10-23T08:05:02;25.43;;;17.43;;
52126;SDS011;38120;53.176;6.614;2022-10-23T08:07:28;26.52;;;16.33;;
52126;SDS011;38120;53.176;6.614;2022-10-23T08:09:54;25.73;;;15.20;;
52126;SDS011;38120;53.176;6.614;2022-10-23T08:12:19;23.87;;;17.63;;
52126;SDS011;38120;53.176;6.614;2022-10-23T08:14:45;26.83;;;17.50;;
52126;SDS011;38120;53.176;6.614;2022-10-23T08:17:11;23.93;;;16.17;;
52126;SDS011;38120;53.176;6.614;2022-10-23T08:19:36;21.77;;;15.80;;
52126;SDS011;38120;53.176;6.614;2022-10-23T08:22:02;23.13;;;17.17;;
52126;SDS011;38120;53.176;6.614;2022-10-23T08:24:28;24.50;;;16.00;;
52126;SDS011;38120;53.176;6.614;2022-10-23T08:26:54;21.88;;;15.07;;
52126;SDS011;38120;53.176;6.614;2022-10-23T08:29:19;28.30;;;16.20;;
52126;SDS011;38120;53.176;6.614;2022-10-23T08:31:45;26.27;;;16.53;;
52126;SDS011;38120;53.176;6.614;2022-10-23T08:34:11;23.80;;;14.17;;
52126;SDS011;38120;53.176;6.614;2022-10-23T08:39:03;27.42;;;17.02;;
52126;SDS011;38120;53.176;6.614;2022-10-23T08:44:07;30.67;;;15.50;;
52126;SDS011;38120;53.176;6.614;2022-10-23T08:46:43;25.17;;;15.02;;
52126;SDS011;38120;53.176;6.614;2022-10-23T08:51:54;25.20;;;15.52;;
52126;SDS011;38120;53.176;6.614;2022-10-23T08:54:23;19.63;;;15.25;;
52126;SDS011;38120;53.176;6.614;2022-10-23T08:56:56;22.05;;;14.55;;
52126;SDS011;38120;53.176;6.614;2022-10-23T09:00:03;24.63;;;15.10;;
52126;SDS011;38120;53.176;6.614;2022-10-23T09:02:25;24.25;;;14.15;;
52126;SDS011;38120;53.176;6.614;2022-10-23T09:04:53;23.05;;;13.55;;
52126;SDS011;38120;53.176;6.614;2022-10-23T09:10:36;20.23;;;12.77;;
52126;SDS011;38120;53.176;6.614;2022-10-23T09:13:19;23.50;;;13.77;;
52126;SDS011;38120;53.176;6.614;2022-10-23T09:15:46;21.13;;;13.55;;
52126;SDS011;38120;53.176;6.614;2022-10-23T09:18:14;24.98;;;13.20;;
52126;SDS011;38120;53.176;6.614;2022-10-23T09:20:43;17.42;;;12.50;;
52126;SDS011;38120;53.176;6.614;2022-10-23T09:23:14;22.08;;;13.27;;
52126;SDS011;38120;53.176;6.614;2022-10-23T09:25:45;17.02;;;12.18;;
52126;SDS011;38120;53.176;6.614;2022-10-23T09:28:19;20.05;;;13.30;;
52126;SDS011;38120;53.176;6.614;2022-10-23T09:30:47;19.80;;;13.48;;
52126;SDS011;38120;53.176;6.614;2022-10-23T09:38:27;20.45;;;13.27;;
52126;SDS011;38120;53.176;6.614;2022-10-23T09:44:17;18.98;;;10.80;;
52126;SDS011;38120;53.176;6.614;2022-10-23T09:46:49;16.25;;;10.98;;
52126;SDS011;38120;53.176;6.614;2022-10-23T09:49:39;16.02;;;11.00;;
52126;SDS011;38120;53.176;6.614;2022-10-23T09:54:46;16.92;;;10.20;;
52126;SDS011;38120;53.176;6.614;2022-10-23T09:59:52;15.82;;;9.48;;
52126;SDS011;38120;53.176;6.614;2022-10-23T10:04:54;13.77;;;8.90;;
52126;SDS011;38120;53.176;6.614;2022-10-23T10:07:21;14.93;;;8.57;;
52126;SDS011;38120;53.176;6.614;2022-10-23T10:09:51;14.95;;;8.85;;
52126;SDS011;38120;53.176;6.614;2022-10-23T10:18:05;23.75;;;9.68;;
52126;SDS011;38120;53.176;6.614;2022-10-23T10:23:39;12.15;;;8.60;;
52126;SDS011;38120;53.176;6.614;2022-10-23T10:34:40;12.20;;;8.32;;
52126;SDS011;38120;53.176;6.614;2022-10-23T10:40:02;16.23;;;8.57;;
52126;SDS011;38120;53.176;6.614;2022-10-23T10:45:45;12.32;;;8.50;;
52126;SDS011;38120;53.176;6.614;2022-10-23T10:51:14;10.38;;;7.78;;
52126;SDS011;38120;53.176;6.614;2022-10-23T10:56:21;14.63;;;8.55;;
52126;SDS011;38120;53.176;6.614;2022-10-23T10:58:51;15.20;;;7.80;;
52126;SDS011;38120;53.176;6.614;2022-10-23T11:01:28;14.85;;;8.23;;
52126;SDS011;38120;53.176;6.614;2022-10-23T11:06:45;15.55;;;8.48;;
52126;SDS011;38120;53.176;6.614;2022-10-23T11:09:20;15.02;;;9.02;;
52126;SDS011;38120;53.176;6.614;2022-10-23T11:11:49;13.68;;;8.55;;
52126;SDS011;38120;53.176;6.614;2022-10-23T11:14:18;15.98;;;8.18;;
52126;SDS011;38120;53.176;6.614;2022-10-23T11:17:03;13.40;;;8.68;;
52126;SDS011;38120;53.176;6.614;2022-10-23T11:19:44;11.25;;;7.85;;
52126;SDS011;38120;53.176;6.614;2022-10-23T11:27:47;14.05;;;7.95;;
52126;SDS011;38120;53.176;6.614;2022-10-23T11:35:59;12.93;;;7.65;;
52126;SDS011;38120;53.176;6.614;2022-10-23T11:38:38;14.38;;;7.95;;
52126;SDS011;38120;53.176;6.614;2022-10-23T11:41:15;14.68;;;7.45;;
52126;SDS011;38120;53.176;6.614;2022-10-23T11:43:48;12.13;;;6.75;;
52126;SDS011;38120;53.176;6.614;2022-10-23T11:48:49;14.43;;;7.50;;
52126;SDS011;38120;53.176;6.614;2022-10-23T11:53:50;11.85;;;6.35;;
52126;SDS011;38120;53.176;6.614;2022-10-23T11:58:47;12.38;;;6.35;;
52126;SDS011;38120;53.176;6.614;2022-10-23T12:09:21;12.38;;;6.60;;
52126;SDS011;38120;53.176;6.614;2022-10-23T12:19:48;11.43;;;6.40;;
52126;SDS011;38120;53.176;6.614;2022-10-23T12:22:16;10.95;;;5.85;;
52126;SDS011;38120;53.176;6.614;2022-10-23T12:30:12;11.57;;;5.93;;
52126;SDS011;38120;53.176;6.614;2022-10-23T12:35:31;11.35;;;6.22;;
52126;SDS011;38120;53.176;6.614;2022-10-23T12:38:28;10.10;;;5.95;;
52126;SDS011;38120;53.176;6.614;2022-10-23T12:40:55;10.40;;;5.68;;
52126;SDS011;38120;53.176;6.614;2022-10-23T12:43:37;10.55;;;5.88;;
52126;SDS011;38120;53.176;6.614;2022-10-23T12:46:23;10.68;;;6.03;;
52126;SDS011;38120;53.176;6.614;2022-10-23T12:49:12;10.95;;;5.45;;
52126;SDS011;38120;53.176;6.614;2022-10-23T12:51:40;9.15;;;5.22;;
52126;SDS011;38120;53.176;6.614;2022-10-23T12:54:13;18.90;;;7.23;;
52126;SDS011;38120;53.176;6.614;2022-10-23T12:56:43;10.75;;;5.85;;
52126;SDS011;38120;53.176;6.614;2022-10-23T13:01:43;10.02;;;5.20;;
52126;SDS011;38120;53.176;6.614;2022-10-23T13:06:35;10.83;;;5.87;;
52126;SDS011;38120;53.176;6.614;2022-10-23T13:09:02;8.15;;;5.63;;
52126;SDS011;38120;53.176;6.614;2022-10-23T13:11:28;12.15;;;5.13;;
52126;SDS011;38120;53.176;6.614;2022-10-23T13:13:55;10.60;;;5.00;;
52126;SDS011;38120;53.176;6.614;2022-10-23T13:16:22;11.85;;;5.72;;
52126;SDS011;38120;53.176;6.614;2022-10-23T13:18:49;13.05;;;5.63;;
52126;SDS011;38120;53.176;6.614;2022-10-23T13:21:18;9.82;;;5.47;;
52126;SDS011;38120;53.176;6.614;2022-10-23T13:23:46;13.52;;;5.10;;
52126;SDS011;38120;53.176;6.614;2022-10-23T13:28:48;12.10;;;5.50;;
52126;SDS011;38120;53.176;6.614;2022-10-23T13:33:43;13.85;;;5.03;;
52126;SDS011;38120;53.176;6.614;2022-10-23T13:38:38;8.88;;;4.63;;
52126;SDS011;38120;53.176;6.614;2022-10-23T13:41:11;7.18;;;4.05;;
52126;SDS011;38120;53.176;6.614;2022-10-23T13:43:42;8.13;;;4.80;;
52126;SDS011;38120;53.176;6.614;2022-10-23T13:46:13;9.38;;;4.57;;
52126;SDS011;38120;53.176;6.614;2022-10-23T13:48:42;10.45;;;4.63;;
52126;SDS011;38120;53.176;6.614;2022-10-23T13:51:13;8.68;;;4.78;;
52126;SDS011;38120;53.176;6.614;2022-10-23T13:53:46;9.60;;;5.68;;
52126;SDS011;38120;53.176;6.614;2022-10-23T13:58:39;10.60;;;4.82;;
52126;SDS011;38120;53.176;6.614;2022-10-23T14:01:05;9.30;;;5.28;;
52126;SDS011;38120;53.176;6.614;2022-10-23T14:03:48;9.38;;;4.18;;
52126;SDS011;38120;53.176;6.614;2022-10-23T14:06:15;9.35;;;4.65;;
52126;SDS011;38120;53.176;6.614;2022-10-23T14:08:40;10.05;;;4.82;;
52126;SDS011;38120;53.176;6.614;2022-10-23T14:11:06;8.85;;;4.78;;
52126;SDS011;38120;53.176;6.614;2022-10-23T14:13:33;9.13;;;4.68;;
52126;SDS011;38120;53.176;6.614;2022-10-23T14:15:58;9.57;;;4.53;;
52126;SDS011;38120;53.176;6.614;2022-10-23T14:18:24;8.57;;;4.33;;
52126;SDS011;38120;53.176;6.614;2022-10-23T14:21:02;8.95;;;4.65;;
52126;SDS011;38120;53.176;6.614;2022-10-23T14:23:29;9.32;;;4.93;;
52126;SDS011;38120;53.176;6.614;2022-10-23T14:26:05;7.90;;;4.50;;
52126;SDS011;38120;53.176;6.614;2022-10-23T14:28:33;9.98;;;4.22;;
52126;SDS011;38120;53.176;6.614;2022-10-23T14:31:03;10.85;;;4.78;;
52126;SDS011;38120;53.176;6.614;2022-10-23T14:33:33;8.65;;;3.72;;
52126;SDS011;38120;53.176;6.614;2022-10-23T14:35:58;7.93;;;4.32;;
52126;SDS011;38120;53.176;6.614;2022-10-23T14:38:24;9.13;;;5.22;;
52126;SDS011;38120;53.176;6.614;2022-10-23T14:40:50;14.93;;;4.30;;
52126;SDS011;38120;53.176;6.614;2022-10-23T14:43:16;6.93;;;3.75;;
52126;SDS011;38120;53.176;6.614;2022-10-23T14:45:42;8.63;;;4.72;;
52126;SDS011;38120;53.176;6.614;2022-10-23T14:50:35;7.88;;;3.83;;
52126;SDS011;38120;53.176;6.614;2022-10-23T14:53:06;9.70;;;4.55;;
52126;SDS011;38120;53.176;6.614;2022-10-23T14:55:32;9.43;;;4.70;;
52126;SDS011;38120;53.176;6.614;2022-10-23T14:57:57;11.37;;;6.10;;
52126;SDS011;38120;53.176;6.614;2022-10-23T15:00:23;7.70;;;4.63;;
52126;SDS011;38120;53.176;6.614;2022-10-23T15:02:49;7.53;;;4.23;;
52126;SDS011;38120;53.176;6.614;2022-10-23T15:05:15;9.40;;;4.90;;
52126;SDS011;38120;53.176;6.614;2022-10-23T15:10:07;11.02;;;4.13;;
52126;SDS011;38120;53.176;6.614;2022-10-23T15:12:36;10.70;;;4.18;;
52126;SDS011;38120;53.176;6.614;2022-10-23T15:15:02;14.20;;;5.47;;
52126;SDS011;38120;53.176;6.614;2022-10-23T15:17:29;7.35;;;4.15;;
52126;SDS011;38120;53.176;6.614;2022-10-23T15:19:56;10.52;;;4.30;;
52126;SDS011;38120;53.176;6.614;2022-10-23T15:22:22;8.52;;;3.95;;
52126;SDS011;38120;53.176;6.614;2022-10-23T15:24:48;9.50;;;4.45;;
52126;SDS011;38120;53.176;6.614;2022-10-23T15:27:14;9.40;;;4.93;;
52126;SDS011;38120;53.176;6.614;2022-10-23T15:29:39;11.63;;;4.50;;
52126;SDS011;38120;53.176;6.614;2022-10-23T15:32:05;9.90;;;4.53;;
52126;SDS011;38120;53.176;6.614;2022-10-23T15:34:33;7.07;;;4.10;;
52126;SDS011;38120;53.176;6.614;2022-10-23T15:36:59;10.73;;;4.65;;
52126;SDS011;38120;53.176;6.614;2022-10-23T15:39:25;7.47;;;4.32;;
52126;SDS011;38120;53.176;6.614;2022-10-23T15:41:55;11.45;;;4.95;;
52126;SDS011;38120;53.176;6.614;2022-10-23T15:44:22;8.52;;;4.32;;
52126;SDS011;38120;53.176;6.614;2022-10-23T15:46:50;9.38;;;4.85;;
52126;SDS011;38120;53.176;6.614;2022-10-23T15:49:16;9.73;;;5.00;;
52126;SDS011;38120;53.176;6.614;2022-10-23T15:51:42;10.85;;;4.95;;
52126;SDS011;38120;53.176;6.614;2022-10-23T15:54:09;9.45;;;4.72;;
52126;SDS011;38120;53.176;6.614;2022-10-23T15:56:40;10.75;;;4.25;;
52126;SDS011;38120;53.176;6.614;2022-10-23T16:01:32;13.85;;;4.63;;
52126;SDS011;38120;53.176;6.614;2022-10-23T16:03:58;11.07;;;4.97;;
52126;SDS011;38120;53.176;6.614;2022-10-23T16:06:24;10.33;;;4.53;;
52126;SDS011;38120;53.176;6.614;2022-10-23T16:08:49;10.27;;;4.40;;
52126;SDS011;38120;53.176;6.614;2022-10-23T16:11:22;14.45;;;4.65;;
52126;SDS011;38120;53.176;6.614;2022-10-23T16:13:50;7.35;;;4.13;;
52126;SDS011;38120;53.176;6.614;2022-10-23T16:16:18;8.13;;;4.43;;
52126;SDS011;38120;53.176;6.614;2022-10-23T16:18:44;10.23;;;4.93;;
52126;SDS011;38120;53.176;6.614;2022-10-23T16:21:23;10.95;;;4.55;;
52126;SDS011;38120;53.176;6.614;2022-10-23T16:23:52;11.82;;;5.15;;
52126;SDS011;38120;53.176;6.614;2022-10-23T16:26:18;14.90;;;4.70;;
52126;SDS011;38120;53.176;6.614;2022-10-23T16:28:45;9.75;;;4.20;;
52126;SDS011;38120;53.176;6.614;2022-10-23T16:31:12;13.50;;;5.60;;
52126;SDS011;38120;53.176;6.614;2022-10-23T16:33:40;10.45;;;4.68;;
52126;SDS011;38120;53.176;6.614;2022-10-23T16:36:07;8.10;;;4.40;;
52126;SDS011;38120;53.176;6.614;2022-10-23T16:38:33;10.32;;;5.47;;
52126;SDS011;38120;53.176;6.614;2022-10-23T16:40:59;10.15;;;6.50;;
52126;SDS011;38120;53.176;6.614;2022-10-23T16:43:25;8.10;;;4.80;;
52126;SDS011;38120;53.176;6.614;2022-10-23T16:46:01;10.60;;;5.25;;
52126;SDS011;38120;53.176;6.614;2022-10-23T16:48:40;9.07;;;5.00;;
52126;SDS011;38120;53.176;6.614;2022-10-23T16:51:08;8.00;;;4.47;;
52126;SDS011;38120;53.176;6.614;2022-10-23T16:53:36;9.32;;;5.13;;
52126;SDS011;38120;53.176;6.614;2022-10-23T16:56:05;9.60;;;5.03;;
52126;SDS011;38120;53.176;6.614;2022-10-23T16:58:32;10.70;;;4.55;;
52126;SDS011;38120;53.176;6.614;2022-10-23T17:01:00;11.65;;;4.50;;
52126;SDS011;38120;53.176;6.614;2022-10-23T17:03:33;10.88;;;5.53;;
52126;SDS011;38120;53.176;6.614;2022-10-23T17:06:03;6.95;;;4.13;;
52126;SDS011;38120;53.176;6.614;2022-10-23T17:08:31;7.18;;;4.18;;
52126;SDS011;38120;53.176;6.614;2022-10-23T17:13:38;7.88;;;4.95;;
52126;SDS011;38120;53.176;6.614;2022-10-23T17:16:13;11.73;;;4.70;;
52126;SDS011;38120;53.176;6.614;2022-10-23T17:18:50;12.45;;;4.72;;
52126;SDS011;38120;53.176;6.614;2022-10-23T17:21:16;10.65;;;4.43;;